Time;durP1;ratioP1;P1;durP2;ratioP2;P2;SDS_P1;SDS_P2;PMS_P1;PMS_P2;Temp;Humidity;BMP_temperature;BMP_pressure;BME280_temperature;BME280_humidity;BME280_pressure;Samples;Min_cycle;Max_cycle;Signal;HPM_P1;HPM_P2
2023/05/30 00:00:32;;;;;;;5.15;3.63;;;20.00;63.40;;;;;;5002532;28;20037;-68
2023/05/30 00:02:58;;;;;;;5.60;3.70;;;20.00;63.40;;;;;;4994792;28;20073;-67
2023/05/30 00:05:23;;;;;;;6.13;3.75;;;20.00;63.40;;;;;;5001612;28;20441;-67
2023/05/30 00:07:49;;;;;;;4.90;3.35;;;20.00;63.40;;;;;;4995113;28;20121;-67
2023/05/30 00:10:15;;;;;;;4.95;3.17;;;20.00;63.30;;;;;;4994748;28;20064;-67
2023/05/30 00:12:41;;;;;;;5.18;3.55;;;20.00;63.40;;;;;;4996921;28;20105;-67
2023/05/30 00:15:07;;;;;;;5.57;2.90;;;20.00;63.30;;;;;;5000588;28;20026;-67
2023/05/30 00:17:35;;;;;;;4.70;3.00;;;20.00;63.40;;;;;;5003061;28;20120;-67
2023/05/30 00:20:02;;;;;;;4.40;3.17;;;20.00;63.40;;;;;;5000271;28;20696;-66
2023/05/30 00:22:28;;;;;;;3.60;3.05;;;20.00;63.40;;;;;;4999844;28;20548;-64
2023/05/30 00:24:55;;;;;;;3.65;3.00;;;20.00;63.40;;;;;;4996395;28;20030;-67
2023/05/30 00:27:20;;;;;;;4.53;3.72;;;20.00;63.40;;;;;;5000954;28;20038;-67
2023/05/30 00:29:46;;;;;;;6.38;3.13;;;20.00;63.40;;;;;;4999186;28;20077;-67
2023/05/30 00:32:12;;;;;;;3.42;2.78;;;20.00;63.40;;;;;;4994717;28;20125;-66
2023/05/30 00:34:38;;;;;;;3.45;2.78;;;20.00;63.40;;;;;;4997012;28;20037;-67
2023/05/30 00:37:05;;;;;;;5.28;2.90;;;20.00;63.40;;;;;;4997200;28;20073;-67
2023/05/30 00:39:31;;;;;;;4.35;3.08;;;20.00;63.40;;;;;;4994630;28;20034;-67
2023/05/30 00:41:56;;;;;;;3.80;3.00;;;20.00;63.40;;;;;;4994195;28;20033;-67
2023/05/30 00:44:22;;;;;;;2.97;2.67;;;20.00;63.40;;;;;;5002427;28;20432;-67
2023/05/30 00:46:49;;;;;;;5.25;3.25;;;20.00;63.40;;;;;;5001023;28;20026;-68
2023/05/30 00:49:15;;;;;;;4.80;2.85;;;20.00;63.40;;;;;;5000529;28;20092;-67
2023/05/30 00:51:41;;;;;;;2.67;2.42;;;20.00;63.30;;;;;;4998348;28;20038;-67
2023/05/30 00:54:07;;;;;;;4.18;2.85;;;20.00;63.40;;;;;;5000919;28;20076;-67
2023/05/30 00:56:33;;;;;;;3.72;2.55;;;20.00;63.40;;;;;;4998325;28;20196;-68
2023/05/30 00:59:01;;;;;;;4.18;3.28;;;20.00;63.40;;;;;;4998716;28;20117;-66
2023/05/30 01:01:26;;;;;;;3.85;2.67;;;20.00;63.40;;;;;;4998229;28;20054;-66
2023/05/30 01:03:52;;;;;;;4.07;2.65;;;20.00;63.40;;;;;;4991647;28;20038;-66
2023/05/30 01:06:20;;;;;;;3.63;2.75;;;20.00;63.40;;;;;;4997595;28;20019;-67
2023/05/30 01:08:47;;;;;;;3.70;2.83;;;20.00;63.40;;;;;;4994621;28;20034;-67
2023/05/30 01:11:26;;;;;;;3.22;2.47;;;19.90;63.30;;;;;;4991270;28;20045;-66
2023/05/30 01:14:02;;;;;;;4.15;2.83;;;20.00;63.40;;;;;;4995821;28;20382;-67
2023/05/30 01:16:35;;;;;;;3.58;2.92;;;19.90;63.30;;;;;;5000633;28;20104;-64
2023/05/30 01:19:19;;;;;;;3.55;2.47;;;20.00;63.40;;;;;;5000792;28;20044;-65
2023/05/30 01:21:45;;;;;;;3.65;2.60;;;19.90;63.30;;;;;;5000664;28;20029;-66
2023/05/30 01:24:41;;;;;;;3.30;2.47;;;19.90;63.40;;;;;;4998408;28;20052;-66
2023/05/30 01:27:40;;;;;;;4.43;2.73;;;20.00;63.40;;;;;;5000771;28;20030;-68
2023/05/30 01:30:08;;;;;;;4.03;2.53;;;19.90;63.30;;;;;;4995880;28;20353;-67
2023/05/30 01:32:34;;;;;;;3.60;2.65;;;19.90;63.30;;;;;;4992804;28;20649;-66
2023/05/30 01:35:00;;;;;;;3.28;2.40;;;20.00;63.40;;;;;;4995660;28;20516;-67
2023/05/30 01:37:26;;;;;;;3.25;2.10;;;19.90;63.30;;;;;;4994362;28;20048;-67
2023/05/30 01:39:51;;;;;;;2.40;2.17;;;19.90;63.30;;;;;;4993535;28;20336;-66
2023/05/30 01:42:25;;;;;;;2.50;2.30;;;19.90;63.30;;;;;;4998837;28;20504;-67
2023/05/30 01:44:53;;;;;;;3.08;2.20;;;19.90;63.30;;;;;;5002389;28;20049;-67
2023/05/30 01:47:31;;;;;;;3.30;2.40;;;19.90;63.30;;;;;;4998795;28;20129;-66
2023/05/30 01:50:07;;;;;;;2.45;2.03;;;19.90;63.30;;;;;;4997960;28;20081;-66
2023/05/30 01:52:40;;;;;;;3.97;2.60;;;19.90;63.30;;;;;;4992330;28;20709;-67
2023/05/30 01:55:08;;;;;;;2.95;2.53;;;19.90;63.30;;;;;;5000422;28;20037;-67
2023/05/30 01:57:46;;;;;;;3.55;2.22;;;19.90;63.30;;;;;;4999314;28;20036;-67
2023/05/30 02:00:16;;;;;;;2.63;2.22;;;19.90;63.30;;;;;;4996821;28;20058;-67
2023/05/30 02:02:42;;;;;;;2.33;1.98;;;19.90;63.90;;;;;;4995348;28;20039;-67
2023/05/30 02:05:08;;;;;;;5.78;2.17;;;19.90;63.30;;;;;;4993439;28;20645;-67
2023/05/30 02:07:33;;;;;;;2.47;1.88;;;19.90;63.30;;;;;;4996002;28;20109;-67
2023/05/30 02:09:59;;;;;;;3.10;2.28;;;19.90;63.30;;;;;;4990208;28;20497;-67
2023/05/30 02:12:25;;;;;;;2.33;2.08;;;19.90;63.30;;;;;;4996364;28;20121;-68
2023/05/30 02:14:52;;;;;;;2.60;1.95;;;19.90;63.30;;;;;;4998771;28;20038;-68
2023/05/30 02:17:20;;;;;;;2.63;1.85;;;19.90;63.30;;;;;;4998955;28;20054;-67
2023/05/30 02:19:49;;;;;;;3.08;2.20;;;19.90;63.30;;;;;;5000229;28;20030;-68
2023/05/30 02:22:15;;;;;;;2.70;2.22;;;19.90;63.30;;;;;;4999436;28;20460;-66
2023/05/30 02:24:41;;;;;;;3.88;2.10;;;19.90;63.30;;;;;;5000786;28;20448;-67
2023/05/30 02:27:07;;;;;;;2.47;2.15;;;19.90;63.20;;;;;;4997998;28;20033;-67
2023/05/30 02:29:33;;;;;;;3.22;2.30;;;19.90;63.30;;;;;;4996075;28;20109;-67
2023/05/30 02:31:58;;;;;;;3.50;2.08;;;19.90;63.20;;;;;;4995359;28;20110;-67
2023/05/30 02:34:24;;;;;;;2.00;1.80;;;19.90;63.20;;;;;;4995039;28;20050;-67
2023/05/30 02:36:49;;;;;;;2.30;1.83;;;19.90;63.20;;;;;;4993996;28;20041;-67
2023/05/30 02:39:15;;;;;;;2.72;1.73;;;19.90;63.20;;;;;;4993546;28;20511;-65
2023/05/30 02:41:41;;;;;;;2.50;2.30;;;19.90;63.20;;;;;;4999113;28;20564;-65
2023/05/30 02:44:06;;;;;;;3.38;2.13;;;19.90;63.20;;;;;;5000001;28;20040;-65
2023/05/30 02:46:33;;;;;;;2.53;1.60;;;19.90;63.20;;;;;;5001205;28;20026;-68
2023/05/30 02:48:59;;;;;;;2.88;1.90;;;19.90;63.20;;;;;;4998509;28;20660;-67
2023/05/30 02:51:25;;;;;;;2.30;2.08;;;19.90;63.20;;;;;;4994136;28;20046;-67
2023/05/30 02:53:51;;;;;;;2.72;1.80;;;19.90;63.20;;;;;;4998253;28;20563;-67
2023/05/30 02:56:16;;;;;;;3.47;2.10;;;19.90;63.20;;;;;;4998928;28;20026;-67
2023/05/30 02:58:42;;;;;;;2.38;1.85;;;19.80;63.20;;;;;;4995887;28;20121;-66
2023/05/30 03:01:08;;;;;;;2.08;1.80;;;19.90;63.20;;;;;;4992203;28;20030;-67
2023/05/30 03:03:34;;;;;;;2.58;2.20;;;19.90;63.20;;;;;;4997649;28;20025;-67
2023/05/30 03:06:01;;;;;;;2.55;1.90;;;19.90;63.20;;;;;;5000003;28;20501;-68
2023/05/30 03:08:28;;;;;;;3.05;2.08;;;19.80;63.20;;;;;;5002666;28;20168;-66
2023/05/30 03:10:54;;;;;;;2.03;1.70;;;19.80;63.10;;;;;;5001877;28;20163;-67
2023/05/30 03:13:20;;;;;;;1.65;1.55;;;19.90;63.20;;;;;;4999230;28;20082;-67
2023/05/30 03:15:45;;;;;;;3.88;2.05;;;19.80;63.20;;;;;;5002117;28;20061;-67
2023/05/30 03:18:11;;;;;;;3.72;1.90;;;19.80;63.10;;;;;;4999664;28;20038;-68
2023/05/30 03:20:36;;;;;;;2.65;1.85;;;19.80;63.10;;;;;;5002053;28;20370;-66
2023/05/30 03:23:02;;;;;;;2.50;1.90;;;19.80;63.10;;;;;;5003477;28;20045;-67
2023/05/30 03:25:28;;;;;;;2.78;2.03;;;19.80;63.10;;;;;;5002472;28;20025;-66
2023/05/30 03:27:53;;;;;;;3.67;2.00;;;19.80;63.10;;;;;;4998856;28;20038;-66
2023/05/30 03:30:22;;;;;;;1.65;1.55;;;19.80;63.10;;;;;;4995550;28;20045;-67
2023/05/30 03:32:48;;;;;;;2.25;1.70;;;19.80;63.10;;;;;;4995492;28;20762;-67
2023/05/30 03:35:16;;;;;;;2.90;1.88;;;19.90;63.20;;;;;;4995381;28;20153;-66
2023/05/30 03:37:41;;;;;;;3.47;1.40;;;19.80;63.00;;;;;;4996540;28;20037;-66
2023/05/30 03:40:08;;;;;;;2.70;1.70;;;19.80;63.00;;;;;;4998106;28;20057;-66
2023/05/30 03:42:34;;;;;;;2.80;1.67;;;19.80;63.00;;;;;;5003219;28;20030;-67
2023/05/30 03:45:00;;;;;;;2.45;1.63;;;19.90;63.00;;;;;;5002120;28;20191;-66
2023/05/30 03:47:26;;;;;;;1.98;1.67;;;19.80;63.00;;;;;;5002503;28;20045;-66
2023/05/30 03:49:52;;;;;;;2.25;1.80;;;19.80;63.00;;;;;;5000361;28;21328;-67
2023/05/30 03:52:17;;;;;;;1.88;1.65;;;19.90;63.00;;;;;;5003786;28;20042;-67
2023/05/30 03:54:44;;;;;;;1.88;1.58;;;19.90;63.00;;;;;;5001938;28;20056;-67
2023/05/30 03:57:09;;;;;;;2.60;1.88;;;19.80;63.00;;;;;;4997992;28;20046;-66
2023/05/30 03:59:35;;;;;;;2.90;1.55;;;19.90;63.00;;;;;;4998290;28;20027;-67
2023/05/30 04:02:00;;;;;;;2.42;1.70;;;19.80;62.90;;;;;;5000522;28;20042;-66
2023/05/30 04:04:26;;;;;;;4.63;1.85;;;19.80;63.00;;;;;;5003389;28;20030;-67
2023/05/30 04:06:52;;;;;;;1.70;1.52;;;19.80;62.90;;;;;;4993506;28;20097;-67
2023/05/30 04:09:17;;;;;;;2.03;1.60;;;19.80;62.90;;;;;;5000144;28;20053;-67
2023/05/30 04:11:43;;;;;;;3.40;1.98;;;19.80;63.00;;;;;;5000456;28;20142;-66
2023/05/30 04:14:08;;;;;;;2.00;1.63;;;19.80;63.00;;;;;;4999673;28;20505;-67
2023/05/30 04:16:34;;;;;;;3.10;1.70;;;19.80;63.00;;;;;;5001226;28;20030;-67
2023/05/30 04:18:59;;;;;;;1.90;1.52;;;19.80;63.00;;;;;;4998827;28;20499;-65
2023/05/30 04:21:26;;;;;;;1.67;1.35;;;19.80;63.00;;;;;;4999754;28;20042;-67
2023/05/30 04:23:52;;;;;;;2.45;1.60;;;19.80;63.00;;;;;;4999062;28;20053;-67
2023/05/30 04:26:17;;;;;;;2.92;1.95;;;19.80;63.00;;;;;;4998019;28;20544;-65
2023/05/30 04:28:43;;;;;;;2.25;1.52;;;19.80;63.00;;;;;;4992629;28;20034;-66
2023/05/30 04:31:10;;;;;;;1.88;1.40;;;19.80;63.00;;;;;;4998121;28;20581;-67
2023/05/30 04:33:35;;;;;;;1.70;1.30;;;19.80;63.00;;;;;;5000073;28;20042;-67
2023/05/30 04:36:06;;;;;;;1.83;1.20;;;19.80;62.90;;;;;;4990745;28;20929;-67
2023/05/30 04:38:34;;;;;;;2.22;1.52;;;19.80;62.90;;;;;;5004776;28;20030;-67
2023/05/30 04:41:01;;;;;;;1.75;1.40;;;19.90;63.20;;;;;;5003734;28;20037;-67
2023/05/30 04:43:28;;;;;;;2.10;1.58;;;19.90;62.80;;;;;;5000133;28;20519;-63
2023/05/30 04:45:54;;;;;;;4.78;1.60;;;19.90;62.80;;;;;;5002194;28;20060;-67
2023/05/30 04:48:19;;;;;;;2.10;1.70;;;19.90;62.70;;;;;;5001826;28;20033;-67
2023/05/30 04:50:46;;;;;;;1.42;1.33;;;19.90;62.70;;;;;;5001687;28;20037;-66
2023/05/30 04:53:17;;;;;;;1.95;1.52;;;20.00;62.60;;;;;;4999775;28;20052;-67
2023/05/30 04:55:45;;;;;;;1.77;1.40;;;20.00;62.70;;;;;;4999213;28;20455;-66
2023/05/30 04:58:11;;;;;;;2.60;1.40;;;20.00;62.60;;;;;;4996193;28;20038;-66
2023/05/30 05:00:38;;;;;;;1.65;1.33;;;20.00;62.60;;;;;;4999562;28;20034;-66
2023/05/30 05:03:04;;;;;;;1.63;1.50;;;20.00;62.60;;;;;;4994994;28;20425;-65
2023/05/30 05:05:30;;;;;;;1.70;1.30;;;20.00;62.60;;;;;;4995930;28;20052;-67
2023/05/30 05:07:55;;;;;;;2.25;1.50;;;20.00;62.60;;;;;;4993948;28;20050;-65
2023/05/30 05:10:21;;;;;;;2.25;1.58;;;20.00;62.60;;;;;;5000740;28;20114;-66
2023/05/30 05:12:46;;;;;;;2.38;1.40;;;20.00;62.60;;;;;;5001004;28;20037;-67
2023/05/30 05:15:12;;;;;;;2.13;1.35;;;20.10;62.60;;;;;;4994408;28;20041;-65
2023/05/30 05:17:38;;;;;;;3.17;2.50;;;20.00;62.80;;;;;;5002283;28;20034;-67
2023/05/30 05:20:08;;;;;;;5.60;4.03;;;20.00;62.70;;;;;;4999816;28;20027;-66
2023/05/30 05:22:35;;;;;;;7.72;5.32;;;20.00;62.60;;;;;;4997281;28;20095;-67
2023/05/30 05:25:01;;;;;;;9.10;6.30;;;20.00;62.60;;;;;;4996330;28;20035;-66
2023/05/30 05:27:27;;;;;;;10.63;6.72;;;20.10;62.60;;;;;;4992262;28;20127;-67
2023/05/30 05:29:53;;;;;;;11.77;7.72;;;20.10;62.60;;;;;;4995168;28;20408;-67
2023/05/30 05:32:19;;;;;;;11.20;7.75;;;20.10;62.60;;;;;;4998197;28;20022;-67
2023/05/30 05:34:44;;;;;;;16.70;7.68;;;20.10;62.80;;;;;;4997330;28;20420;-66
2023/05/30 05:37:10;;;;;;;9.95;6.22;;;20.10;63.00;;;;;;4997849;28;20101;-68
2023/05/30 05:39:35;;;;;;;17.98;6.70;;;20.10;63.20;;;;;;4999790;28;20030;-67
2023/05/30 05:42:02;;;;;;;7.60;6.00;;;20.10;63.60;;;;;;4999863;28;20030;-67
2023/05/30 05:44:28;;;;;;;14.13;6.32;;;20.10;63.20;;;;;;4998399;28;20029;-64
2023/05/30 05:46:54;;;;;;;8.10;5.63;;;20.10;63.20;;;;;;4998214;28;20064;-64
2023/05/30 05:49:19;;;;;;;10.32;5.95;;;20.10;63.40;;;;;;5000782;28;20057;-65
2023/05/30 05:51:45;;;;;;;7.93;5.88;;;20.10;63.40;;;;;;4995689;28;20045;-66
2023/05/30 05:54:11;;;;;;;9.52;6.90;;;20.10;63.60;;;;;;4995562;28;20061;-65
2023/05/30 05:56:37;;;;;;;10.02;7.35;;;20.10;63.70;;;;;;4994391;28;20029;-65
2023/05/30 05:59:03;;;;;;;9.68;6.78;;;20.10;63.80;;;;;;4994244;28;20034;-65
2023/05/30 06:01:28;;;;;;;7.95;6.13;;;20.10;63.60;;;;;;4996490;28;20030;-64
2023/05/30 06:03:54;;;;;;;7.72;5.80;;;20.10;63.80;;;;;;4991404;28;20034;-63
2023/05/30 06:06:20;;;;;;;13.73;6.78;;;20.10;63.80;;;;;;4997660;28;20409;-65
2023/05/30 06:08:46;;;;;;;10.95;6.50;;;20.10;63.90;;;;;;4999107;28;20027;-63
2023/05/30 06:11:12;;;;;;;8.27;6.43;;;20.10;63.90;;;;;;4998391;28;20041;-67
2023/05/30 06:13:38;;;;;;;8.07;6.22;;;20.10;63.90;;;;;;5001945;28;20029;-64
2023/05/30 06:16:04;;;;;;;7.72;5.63;;;20.20;64.00;;;;;;4997688;28;20031;-61
2023/05/30 06:18:29;;;;;;;12.85;6.47;;;20.10;64.00;;;;;;4998131;28;20076;-63
2023/05/30 06:20:55;;;;;;;8.68;6.20;;;20.10;63.90;;;;;;4998491;28;20104;-64
2023/05/30 06:23:21;;;;;;;11.25;5.85;;;20.20;63.90;;;;;;4994386;28;20093;-64
2023/05/30 06:25:46;;;;;;;9.27;6.60;;;20.10;64.50;;;;;;4992408;28;20401;-64
2023/05/30 06:28:12;;;;;;;8.90;5.47;;;20.20;64.00;;;;;;4991247;28;20043;-63
2023/05/30 06:30:37;;;;;;;11.05;6.03;;;20.10;64.00;;;;;;4994616;28;20465;-64
2023/05/30 06:33:03;;;;;;;8.63;5.35;;;20.10;63.90;;;;;;4991100;28;20029;-65
2023/05/30 06:35:29;;;;;;;8.95;5.80;;;20.10;64.00;;;;;;4996169;28;20049;-63
2023/05/30 06:37:54;;;;;;;7.03;5.63;;;20.10;63.80;;;;;;4999491;28;20075;-63
2023/05/30 06:40:20;;;;;;;9.43;5.53;;;20.10;63.80;;;;;;4995677;28;20041;-65
2023/05/30 06:42:45;;;;;;;15.77;8.48;;;20.20;63.80;;;;;;4993880;28;20037;-64
2023/05/30 06:45:12;;;;;;;19.27;9.65;;;20.20;64.00;;;;;;4996413;28;20038;-67
2023/05/30 06:47:38;;;;;;;25.08;11.00;;;20.20;64.30;;;;;;4997446;28;20030;-66
2023/05/30 06:50:05;;;;;;;21.92;10.40;;;20.20;64.40;;;;;;4997406;28;20080;-62
2023/05/30 06:52:30;;;;;;;25.35;11.27;;;20.30;64.00;;;;;;4996572;28;20132;-67
2023/05/30 06:54:55;;;;;;;20.77;10.00;;;20.30;64.20;;;;;;4991182;28;20538;-67
2023/05/30 06:57:21;;;;;;;22.20;10.60;;;20.30;64.20;;;;;;4996770;28;20062;-66
2023/05/30 06:59:46;;;;;;;26.23;9.57;;;20.30;64.00;;;;;;4995460;28;20097;-66
2023/05/30 07:02:12;;;;;;;19.23;9.27;;;20.40;64.10;;;;;;4993489;28;20520;-67
2023/05/30 07:04:37;;;;;;;22.50;9.98;;;20.40;64.00;;;;;;4995617;28;20133;-67
2023/05/30 07:07:03;;;;;;;20.70;9.43;;;20.40;64.00;;;;;;4997660;28;20022;-66
2023/05/30 07:09:29;;;;;;;21.88;9.45;;;20.40;64.00;;;;;;4996900;28;20049;-67
2023/05/30 07:11:54;;;;;;;21.63;9.40;;;20.40;64.00;;;;;;4997678;28;20084;-65
2023/05/30 07:14:20;;;;;;;23.60;9.70;;;20.40;63.90;;;;;;4996557;28;20112;-64
2023/05/30 07:16:46;;;;;;;23.33;8.50;;;20.40;63.80;;;;;;4999974;28;20053;-65
2023/05/30 07:19:12;;;;;;;19.70;8.70;;;20.40;63.70;;;;;;4996537;28;20441;-64
2023/05/30 07:21:37;;;;;;;20.83;7.47;;;20.40;63.60;;;;;;4995598;28;20030;-65
2023/05/30 07:24:03;;;;;;;18.80;7.72;;;20.40;63.50;;;;;;4990703;28;20037;-64
2023/05/30 07:26:29;;;;;;;17.13;8.27;;;20.40;63.50;;;;;;4990129;28;20022;-64
2023/05/30 07:28:56;;;;;;;14.18;6.70;;;20.40;63.40;;;;;;4996412;28;20531;-65
2023/05/30 07:31:21;;;;;;;12.93;6.18;;;20.40;63.30;;;;;;4991841;28;20062;-64
2023/05/30 07:33:47;;;;;;;16.45;6.82;;;20.40;63.30;;;;;;4994909;28;20038;-65
2023/05/30 07:36:12;;;;;;;13.85;6.90;;;20.40;63.20;;;;;;5001452;28;20034;-65
2023/05/30 07:38:38;;;;;;;13.85;6.32;;;20.40;63.00;;;;;;5003786;28;20031;-65
2023/05/30 07:41:03;;;;;;;15.90;6.15;;;20.40;63.00;;;;;;5000490;28;20030;-65
2023/05/30 07:43:29;;;;;;;17.02;5.60;;;20.30;63.00;;;;;;4998538;28;20121;-64
2023/05/30 07:45:54;;;;;;;12.75;5.53;;;20.40;62.90;;;;;;4998465;28;20037;-65
2023/05/30 07:48:20;;;;;;;14.30;5.70;;;20.30;62.70;;;;;;4997329;28;20035;-64
2023/05/30 07:50:45;;;;;;;10.40;5.22;;;20.30;62.70;;;;;;4995473;28;20479;-64
2023/05/30 07:53:11;;;;;;;11.05;5.95;;;20.30;62.70;;;;;;4996922;28;20038;-65
2023/05/30 07:55:36;;;;;;;10.80;5.00;;;20.30;63.30;;;;;;4991626;28;20042;-64
2023/05/30 07:58:01;;;;;;;9.77;5.32;;;20.30;62.70;;;;;;4995409;28;20117;-65
2023/05/30 08:00:28;;;;;;;10.85;5.32;;;20.30;62.70;;;;;;4990930;28;20107;-62
2023/05/30 08:02:53;;;;;;;13.55;6.13;;;20.30;62.60;;;;;;4996648;28;20084;-64
2023/05/30 08:05:19;;;;;;;10.13;4.93;;;20.30;62.60;;;;;;4997990;28;20034;-64
2023/05/30 08:07:45;;;;;;;13.30;4.85;;;20.30;62.60;;;;;;5001096;28;20027;-64
2023/05/30 08:10:10;;;;;;;11.20;4.35;;;20.30;63.30;;;;;;4996549;28;20038;-64
2023/05/30 08:12:36;;;;;;;15.30;5.80;;;20.30;62.60;;;;;;4997935;28;20038;-64
2023/05/30 08:15:03;;;;;;;9.30;3.95;;;20.30;62.60;;;;;;5002049;28;20034;-64
2023/05/30 08:17:29;;;;;;;10.32;4.70;;;20.30;62.60;;;;;;5002099;28;20034;-64
2023/05/30 08:19:55;;;;;;;9.20;4.30;;;20.30;62.50;;;;;;4995396;28;20049;-61
2023/05/30 08:22:23;;;;;;;8.73;4.07;;;20.30;62.50;;;;;;5001231;28;20034;-66
2023/05/30 08:24:54;;;;;;;8.10;3.63;;;20.30;62.50;;;;;;4991732;28;20434;-66
2023/05/30 08:27:21;;;;;;;11.00;4.20;;;20.30;62.50;;;;;;4995038;28;20030;-65
2023/05/30 08:29:49;;;;;;;8.40;4.13;;;20.30;62.50;;;;;;4995940;28;20038;-66
2023/05/30 08:32:15;;;;;;;10.80;4.05;;;20.30;62.50;;;;;;4993597;28;20038;-66
2023/05/30 08:34:41;;;;;;;7.30;3.33;;;20.30;62.50;;;;;;5003727;28;20030;-61
2023/05/30 08:37:07;;;;;;;7.47;4.32;;;20.30;62.50;;;;;;5000533;28;20025;-65
2023/05/30 08:39:33;;;;;;;11.07;4.57;;;20.30;62.40;;;;;;5000993;28;20034;-66
2023/05/30 08:41:59;;;;;;;8.30;3.53;;;20.30;62.40;;;;;;5001610;28;20421;-65
2023/05/30 08:44:25;;;;;;;8.68;3.47;;;20.20;62.30;;;;;;5002336;28;20258;-62
2023/05/30 08:46:51;;;;;;;9.23;3.10;;;20.20;62.30;;;;;;5000589;28;20027;-66
2023/05/30 08:49:21;;;;;;;6.05;3.35;;;20.20;62.20;;;;;;4995866;28;20045;-63
2023/05/30 08:51:48;;;;;;;8.82;3.35;;;20.20;62.20;;;;;;4993247;28;20100;-65
2023/05/30 08:54:22;;;;;;;8.48;3.50;;;20.30;62.30;;;;;;4990680;28;20041;-65
2023/05/30 08:57:17;;;;;;;8.52;3.00;;;20.20;62.20;;;;;;4995166;28;20616;-65
2023/05/30 08:59:44;;;;;;;6.53;3.30;;;20.30;62.20;;;;;;4994935;28;20389;-64
2023/05/30 09:02:12;;;;;;;5.53;3.00;;;20.20;62.20;;;;;;4993262;28;20405;-65
2023/05/30 09:04:38;;;;;;;5.43;2.97;;;20.20;62.20;;;;;;4990797;28;20034;-67
2023/05/30 09:07:05;;;;;;;7.13;3.15;;;20.20;62.20;;;;;;5005842;28;20042;-65
2023/05/30 09:09:33;;;;;;;7.53;3.28;;;20.20;62.20;;;;;;5003970;28;20061;-65
2023/05/30 09:11:58;;;;;;;8.05;3.20;;;20.20;62.10;;;;;;5001544;28;20030;-66
2023/05/30 09:14:24;;;;;;;7.40;2.65;;;20.20;62.20;;;;;;5004826;28;20034;-66
2023/05/30 09:16:49;;;;;;;10.50;3.03;;;20.20;62.10;;;;;;5014045;28;20038;-66
2023/05/30 09:19:15;;;;;;;4.88;2.50;;;20.20;62.10;;;;;;5015967;28;20098;-66
2023/05/30 09:21:41;;;;;;;5.57;2.60;;;20.20;62.10;;;;;;5018406;28;20045;-65
2023/05/30 09:24:06;;;;;;;6.88;3.78;;;20.20;62.70;;;;;;5014833;28;20033;-64
2023/05/30 09:26:32;;;;;;;10.10;3.05;;;20.20;62.10;;;;;;5014959;28;20041;-66
2023/05/30 09:29:08;;;;;;;4.57;2.78;;;20.20;62.10;;;;;;5015148;28;20027;-65
2023/05/30 09:31:35;;;;;;;6.22;2.70;;;20.20;62.00;;;;;;5020287;28;20038;-64
2023/05/30 09:34:02;;;;;;;6.82;2.45;;;20.20;62.10;;;;;;5002108;28;20049;-65
2023/05/30 09:36:28;;;;;;;4.57;2.53;;;20.20;62.10;;;;;;4999848;28;20033;-62
2023/05/30 09:38:55;;;;;;;8.05;2.58;;;20.20;62.10;;;;;;4999519;28;20041;-64
2023/05/30 09:41:22;;;;;;;6.97;2.35;;;20.20;62.10;;;;;;4999676;28;20100;-66
2023/05/30 09:43:53;;;;;;;4.18;2.70;;;20.20;62.00;;;;;;5000433;28;20037;-66
2023/05/30 09:46:19;;;;;;;4.03;2.30;;;20.20;62.00;;;;;;4998774;28;20552;-66
2023/05/30 09:48:45;;;;;;;6.18;2.88;;;20.10;62.00;;;;;;4995141;28;20313;-65
2023/05/30 09:51:11;;;;;;;3.50;2.40;;;20.20;62.00;;;;;;4992917;28;20034;-66
2023/05/30 09:53:37;;;;;;;5.88;2.72;;;20.10;62.00;;;;;;4991502;28;20069;-65
2023/05/30 09:56:03;;;;;;;6.10;2.28;;;20.20;62.10;;;;;;4991205;28;20389;-65
2023/05/30 09:58:28;;;;;;;3.53;2.10;;;20.10;62.00;;;;;;4992149;28;20196;-65
2023/05/30 10:00:56;;;;;;;4.05;2.20;;;20.20;62.10;;;;;;4995819;28;20552;-63
2023/05/30 10:03:41;;;;;;;4.18;2.20;;;20.10;62.00;;;;;;5000474;28;20043;-66
2023/05/30 10:06:13;;;;;;;5.47;2.40;;;20.10;62.00;;;;;;4998994;28;20099;-62
2023/05/30 10:08:44;;;;;;;4.43;2.08;;;20.10;62.10;;;;;;5002137;28;20030;-65
2023/05/30 10:11:10;;;;;;;3.22;2.33;;;20.10;62.10;;;;;;5000919;28;20048;-66
2023/05/30 10:13:37;;;;;;;4.65;2.38;;;20.10;62.00;;;;;;5000172;28;22961;-65
2023/05/30 10:16:04;;;;;;;4.47;2.67;;;20.10;62.00;;;;;;4994649;28;20034;-62
2023/05/30 10:18:33;;;;;;;4.40;2.13;;;20.10;62.10;;;;;;4992724;28;20110;-64
2023/05/30 10:21:00;;;;;;;4.05;2.35;;;20.10;62.00;;;;;;4990696;28;20560;-65
2023/05/30 10:23:26;;;;;;;3.65;2.03;;;20.10;62.10;;;;;;4989785;28;20041;-66
2023/05/30 10:25:54;;;;;;;4.30;2.10;;;20.10;62.00;;;;;;4993845;28;20030;-65
2023/05/30 10:28:26;;;;;;;4.78;1.95;;;20.10;62.10;;;;;;4989475;28;20606;-66
2023/05/30 10:30:52;;;;;;;4.03;2.20;;;20.10;62.00;;;;;;4995425;28;20037;-66
2023/05/30 10:33:20;;;;;;;3.58;1.83;;;20.10;62.00;;;;;;4997815;28;20049;-65
2023/05/30 10:35:46;;;;;;;3.67;2.15;;;20.10;62.00;;;;;;4999772;28;20617;-66
2023/05/30 10:38:12;;;;;;;3.38;1.70;;;20.10;62.00;;;;;;4998016;28;20354;-66
2023/05/30 10:41:06;;;;;;;5.18;1.98;;;20.20;62.00;;;;;;4999100;28;20540;-66
2023/05/30 10:43:49;;;;;;;4.90;2.10;;;20.10;62.00;;;;;;4998636;28;20022;-66
2023/05/30 10:46:55;;;;;;;3.20;1.90;;;20.10;61.90;;;;;;4985647;28;20088;-66
2023/05/30 10:49:25;;;;;;;3.10;1.50;;;20.10;62.00;;;;;;4991018;28;20114;-66
2023/05/30 10:52:04;;;;;;;2.50;1.70;;;20.20;62.10;;;;;;4990473;28;20084;-66
2023/05/30 10:54:32;;;;;;;3.67;1.92;;;20.10;61.90;;;;;;4991827;28;20026;-66
2023/05/30 10:57:00;;;;;;;3.08;1.73;;;20.10;62.00;;;;;;4992684;28;20435;-66
2023/05/30 10:59:25;;;;;;;2.92;1.65;;;20.10;61.90;;;;;;4993623;28;20034;-64
2023/05/30 11:02:00;;;;;;;3.60;1.60;;;20.10;61.90;;;;;;4998116;28;20133;-64
2023/05/30 11:04:34;;;;;;;5.03;1.73;;;20.10;62.00;;;;;;4997323;28;20176;-65
2023/05/30 11:07:03;;;;;;;2.45;1.50;;;20.10;61.90;;;;;;4997410;28;20091;-65
2023/05/30 11:09:29;;;;;;;3.17;1.83;;;20.10;61.90;;;;;;4985602;28;20052;-65
2023/05/30 11:11:56;;;;;;;4.65;1.80;;;20.10;62.00;;;;;;5002148;28;20053;-65
2023/05/30 11:14:33;;;;;;;6.70;2.17;;;20.10;62.00;;;;;;4996595;28;20041;-65
2023/05/30 11:17:05;;;;;;;3.80;1.75;;;20.10;62.00;;;;;;4997946;28;20026;-66
2023/05/30 11:19:39;;;;;;;5.07;1.60;;;20.10;61.90;;;;;;4989498;28;20117;-66
2023/05/30 11:22:13;;;;;;;2.58;1.58;;;20.10;61.90;;;;;;4982992;28;20030;-66
2023/05/30 11:24:43;;;;;;;2.85;1.70;;;20.10;62.00;;;;;;4993216;28;20030;-66
2023/05/30 11:27:12;;;;;;;3.50;1.60;;;20.10;61.90;;;;;;4998921;28;20497;-64
2023/05/30 11:29:43;;;;;;;3.85;1.63;;;20.10;61.90;;;;;;4996880;28;20034;-65
2023/05/30 11:32:09;;;;;;;3.65;1.73;;;20.10;61.90;;;;;;5003165;28;20041;-66
2023/05/30 11:34:35;;;;;;;2.30;1.48;;;20.10;61.90;;;;;;4999168;28;20512;-66
2023/05/30 11:37:02;;;;;;;3.53;1.95;;;20.10;61.90;;;;;;5002015;28;20030;-65
2023/05/30 11:39:30;;;;;;;3.88;1.73;;;20.10;61.90;;;;;;5003630;28;20057;-60
2023/05/30 11:41:57;;;;;;;3.03;1.33;;;20.10;62.30;;;;;;5001017;28;20422;-65
2023/05/30 11:44:22;;;;;;;2.55;1.30;;;20.10;61.90;;;;;;4998385;28;20516;-65
2023/05/30 11:47:02;;;;;;;3.50;1.50;;;20.10;61.90;;;;;;4998114;28;20018;-64
2023/05/30 11:49:27;;;;;;;2.42;1.67;;;20.10;62.00;;;;;;4991731;28;20085;-61
2023/05/30 11:51:53;;;;;;;3.85;1.42;;;20.10;61.90;;;;;;4998711;28;20049;-63
2023/05/30 11:54:22;;;;;;;2.88;1.50;;;20.10;62.00;;;;;;4993610;28;20037;-64
2023/05/30 11:56:50;;;;;;;2.58;1.60;;;20.10;62.00;;;;;;4995972;28;20069;-64
2023/05/30 11:59:20;;;;;;;3.10;1.73;;;20.10;62.00;;;;;;4997552;28;20030;-65
2023/05/30 12:01:53;;;;;;;3.05;1.73;;;20.10;62.00;;;;;;5001509;28;20054;-64
2023/05/30 12:04:27;;;;;;;2.10;1.48;;;20.10;62.00;;;;;;5002162;28;20034;-64
2023/05/30 12:06:57;;;;;;;2.22;1.23;;;20.10;62.00;;;;;;5001855;28;20107;-64
2023/05/30 12:09:23;;;;;;;3.17;1.20;;;20.10;62.00;;;;;;5001347;28;20129;-65
2023/05/30 12:11:51;;;;;;;2.05;1.30;;;20.10;62.00;;;;;;4998899;28;20117;-66
2023/05/30 12:14:17;;;;;;;2.10;1.10;;;20.10;62.00;;;;;;4997353;28;20065;-66
2023/05/30 12:16:42;;;;;;;2.60;1.60;;;20.10;62.00;;;;;;4997997;28;20030;-65
2023/05/30 12:19:10;;;;;;;1.75;1.20;;;20.10;62.00;;;;;;4989967;28;20047;-66
2023/05/30 12:21:36;;;;;;;2.97;1.65;;;20.10;62.00;;;;;;4995435;28;20057;-65
2023/05/30 12:24:09;;;;;;;2.17;1.13;;;20.10;62.00;;;;;;4994021;28;20401;-66
2023/05/30 12:26:35;;;;;;;4.00;1.48;;;20.10;62.00;;;;;;4992153;28;20029;-66
2023/05/30 12:29:06;;;;;;;2.03;1.20;;;20.10;62.00;;;;;;4999744;28;20469;-65
2023/05/30 12:31:33;;;;;;;2.05;1.00;;;20.10;62.00;;;;;;4999573;28;21041;-66
2023/05/30 12:34:01;;;;;;;2.22;1.50;;;20.10;62.00;;;;;;4998024;28;20427;-65
2023/05/30 12:36:27;;;;;;;3.83;1.55;;;20.10;62.00;;;;;;5005501;28;20030;-68
2023/05/30 12:38:59;;;;;;;4.53;1.77;;;20.10;62.00;;;;;;5003914;28;20417;-65
2023/05/30 12:41:29;;;;;;;3.50;1.23;;;20.10;62.00;;;;;;5006344;28;20138;-65
2023/05/30 12:43:55;;;;;;;2.92;1.42;;;20.10;62.00;;;;;;5005491;28;20030;-66
2023/05/30 12:46:21;;;;;;;2.95;1.30;;;20.10;62.00;;;;;;4992128;28;20035;-65